Sydney / J.A. Douglas McCurdy Airport

CYQY | YQY

Sydney , Nova Scotia , Canada

Wednesday, December 11th, 2019 | 12:04

Weather

CYQY 111548Z 31010KT 2SM -PL FEW014 OVC047 M00/M02 A3002 RMK ST2NS6 SLP168

Charts

No Charts Available

Gates

6 Available

Runways

2 Available

Events

No events for this airport


New event